Molokai Airport Kaunakakai US
ICAO: PHMK
IATA:
Category: Medium
Scheduled Services:

Elevation: 454 ft
TransAlt. 18000 ft.

Airport Communications:
ATIS:128.2
HONOLULU CNTR:124.1
CTAF:125.7
GND:121.9
HONOLULU RDO:116.1
TWR:125.7

PHMK Zoom In..

Runways:

(A) RW 05 length 4494 ft width 100 ft
---- / hdg 49

(B) RW 17 length 3118 ft width 100 ft
---- / hdg 169

(C) RW 23 length 4494 ft width 100 ft
---- / hdg 229

(D) RW 35 length 3118 ft width 100 ft
---- / hdg 349

Location; PHMK
Day. 09 / Time. 00.54 Zulu
* Altimeter: 30.03
* Temperature: 28° c. 82.4°f.
* Wind from: 040° Speed 16 kn with Gusts up to 28 kn.
Dewpoint: 20° c.
Visibility: 10 Statute Miles.
Clouds: Scattered 3300 ft.

PHMK 090054Z 04016G28KT 10SM SCT033 28/20 A3003 RMK AO2 PK WND 05029/0020 SLP169 T02780200 $

Going to: --> -->


Wind From 040°
Speed 16 kn.

 
 
jpsmedia worldairports.se 2020   terms of use